Time;durP1;ratioP1;P1;durP2;ratioP2;P2;SDS_P1;SDS_P2;PMS_P1;PMS_P2;Temp;Humidity;BMP_temperature;BMP_pressure;BME280_temperature;BME280_humidity;BME280_pressure;Samples;Min_cycle;Max_cycle;Signal;HPM_P1;HPM_P2
2021/08/03 00:04:41;;;;;;;3.97;1.20;;;;;;;15.26;76.31;101269.19;10200932;28;20100;-71
2021/08/03 00:09:40;;;;;;;3.88;1.38;;;;;;;15.31;76.20;101277.25;10194245;28;20056;-70
2021/08/03 00:14:42;;;;;;;4.22;1.55;;;;;;;15.24;76.40;101272.25;10195557;28;20419;-70
2021/08/03 00:19:40;;;;;;;4.55;1.30;;;;;;;15.18;76.65;101273.63;10191261;28;20125;-70
2021/08/03 00:24:38;;;;;;;8.73;1.75;;;;;;;15.20;76.88;101276.03;10199871;28;20081;-70
2021/08/03 00:29:36;;;;;;;4.18;1.40;;;;;;;15.19;77.21;101280.72;10193383;28;20042;-70
2021/08/03 00:34:37;;;;;;;4.32;1.13;;;;;;;15.22;77.38;101291.06;10195248;28;20458;-69
2021/08/03 00:39:35;;;;;;;4.22;1.42;;;;;;;15.19;77.36;101275.22;10198115;28;20080;-69
2021/08/03 00:44:49;;;;;;;5.18;1.65;;;;;;;15.19;77.33;101286.25;10206813;28;20132;-69
2021/08/03 00:49:46;;;;;;;5.75;1.80;;;;;;;15.15;77.97;101279.78;10203088;28;20077;-69
2021/08/03 00:54:43;;;;;;;9.00;1.88;;;;;;;15.09;78.02;101275.63;10199978;28;20068;-69
2021/08/03 00:59:39;;;;;;;5.45;1.42;;;;;;;15.10;77.79;101283.53;10199123;28;20041;-70
2021/08/03 01:04:36;;;;;;;5.25;1.33;;;;;;;15.09;77.96;101281.94;10196288;28;20109;-69
2021/08/03 01:09:49;;;;;;;3.50;1.27;;;;;;;15.11;78.07;101276.09;10198455;28;20444;-69
2021/08/03 01:14:54;;;;;;;4.97;1.38;;;;;;;15.18;78.12;101278.31;10201129;28;20612;-70
2021/08/03 01:20:12;;;;;;;4.15;1.25;;;;;;;15.14;78.03;101287.25;10205251;28;20068;-69
2021/08/03 01:25:30;;;;;;;3.80;1.35;;;;;;;15.10;78.60;101294.56;10209590;28;20096;-70
2021/08/03 01:30:27;;;;;;;9.25;1.70;;;;;;;15.10;78.20;101293.75;10213889;28;20072;-70
2021/08/03 01:35:24;;;;;;;4.57;1.88;;;;;;;15.02;78.38;101291.88;10217273;28;20454;-70
2021/08/03 01:40:20;;;;;;;6.82;1.95;;;;;;;15.05;78.53;101291.19;10215798;28;20077;-70
2021/08/03 01:45:18;;;;;;;8.98;2.28;;;;;;;15.01;78.29;101284.75;10204883;28;20053;-70
2021/08/03 01:50:16;;;;;;;4.22;1.70;;;;;;;15.05;78.29;101285.69;10199184;28;20050;-70
2021/08/03 01:55:13;;;;;;;4.63;2.10;;;;;;;14.91;78.55;101292.25;10199692;28;20049;-70
2021/08/03 02:00:10;;;;;;;7.63;2.63;;;;;;;14.97;78.13;101294.81;10195068;28;20499;-70
2021/08/03 02:05:08;;;;;;;6.35;2.17;;;;;;;14.91;78.13;101303.25;10190796;28;20053;-69
2021/08/03 02:10:06;;;;;;;6.60;2.28;;;;;;;14.99;78.38;101292.53;10198773;28;20404;-69
2021/08/03 02:15:04;;;;;;;5.88;2.10;;;;;;;14.98;78.11;101297.25;10205009;28;20073;-70
2021/08/03 02:20:02;;;;;;;8.07;2.95;;;;;;;14.97;78.53;101294.81;10190363;28;20331;-71
2021/08/03 02:24:59;;;;;;;6.10;2.03;;;;;;;14.92;78.46;101304.91;10175999;28;20062;-71
2021/08/03 02:29:56;;;;;;;7.07;2.45;;;;;;;14.87;78.57;101312.53;10205176;28;20137;-69
2021/08/03 02:35:09;;;;;;;7.03;2.92;;;;;;;14.87;78.39;101316.06;10211976;28;20042;-69
2021/08/03 02:40:08;;;;;;;6.27;2.80;;;;;;;14.82;78.82;101305.25;10211998;28;20490;-69
2021/08/03 02:45:05;;;;;;;7.90;3.10;;;;;;;14.73;78.83;101310.00;10211838;28;20526;-70
2021/08/03 02:50:06;;;;;;;5.15;2.50;;;;;;;14.79;78.37;101311.44;10193871;28;20081;-68
2021/08/03 02:55:12;;;;;;;8.10;3.35;;;;;;;14.66;78.95;101306.97;10188264;28;20633;-69
2021/08/03 03:00:09;;;;;;;6.22;2.63;;;;;;;14.72;78.73;101302.91;10196321;28;20562;-69
2021/08/03 03:05:18;;;;;;;6.55;2.95;;;;;;;14.69;78.80;101306.28;10204342;28;20057;-69
2021/08/03 03:10:23;;;;;;;7.32;2.88;;;;;;;14.69;78.72;101306.28;10191606;28;20534;-69
2021/08/03 03:15:21;;;;;;;6.47;2.55;;;;;;;14.71;78.91;101309.53;10168583;28;20077;-72
2021/08/03 03:20:19;;;;;;;6.78;2.50;;;;;;;14.68;78.49;101310.19;10191631;28;20042;-70
2021/08/03 03:25:19;;;;;;;4.90;2.78;;;;;;;14.64;78.32;101309.22;10178073;28;20053;-70
2021/08/03 03:30:17;;;;;;;6.30;3.20;;;;;;;14.62;78.35;101306.00;10192977;28;20046;-71
2021/08/03 03:35:16;;;;;;;6.78;2.88;;;;;;;14.58;79.30;101288.56;10185925;28;20045;-68
2021/08/03 03:40:22;;;;;;;8.50;2.78;;;;;;;14.52;79.76;101302.44;10190886;28;20077;-69
2021/08/03 03:45:19;;;;;;;8.45;2.78;;;;;;;14.57;80.03;101295.19;10186207;28;20046;-70
2021/08/03 03:50:22;;;;;;;8.07;3.67;;;;;;;14.59;80.34;101295.66;10191547;28;20085;-68
2021/08/03 03:55:21;;;;;;;9.55;4.75;;;;;;;14.58;80.29;101305.06;10190837;28;20052;-66
2021/08/03 04:00:19;;;;;;;5.63;3.10;;;;;;;14.57;80.47;101314.44;10187546;28;20077;-68
2021/08/03 04:05:16;;;;;;;6.20;3.15;;;;;;;14.61;80.47;101312.66;10181542;28;20507;-68
2021/08/03 04:10:13;;;;;;;6.35;2.67;;;;;;;14.59;80.44;101323.19;10185716;28;20560;-68
2021/08/03 04:15:10;;;;;;;6.55;2.70;;;;;;;14.51;80.71;101317.34;10188101;28;20491;-67
2021/08/03 04:20:07;;;;;;;6.70;3.08;;;;;;;14.42;81.35;101322.09;10182696;28;20482;-68
2021/08/03 04:25:04;;;;;;;7.43;2.53;;;;;;;14.42;81.51;101326.78;10182282;28;20115;-68
2021/08/03 04:30:01;;;;;;;6.18;2.33;;;;;;;14.45;81.16;101335.19;10187889;28;20483;-68
2021/08/03 04:34:57;;;;;;;5.95;2.38;;;;;;;14.44;81.29;101339.06;10181526;28;20115;-67
2021/08/03 04:39:54;;;;;;;5.38;2.17;;;;;;;14.45;81.15;101346.19;10176439;28;20107;-66
2021/08/03 04:44:50;;;;;;;5.85;2.80;;;;;;;14.38;81.23;101343.13;10176089;28;20140;-67
2021/08/03 04:49:46;;;;;;;5.45;2.85;;;;;;;14.45;81.32;101348.13;10181125;28;20777;-67
2021/08/03 04:54:43;;;;;;;5.13;2.35;;;;;;;14.46;81.35;101347.81;10180540;28;20164;-67
2021/08/03 04:59:39;;;;;;;5.20;2.25;;;;;;;14.53;81.34;101348.13;10178852;28;20042;-67
2021/08/03 05:04:36;;;;;;;4.65;2.30;;;;;;;14.53;81.06;101348.13;10184396;28;20042;-67
2021/08/03 05:09:34;;;;;;;3.58;1.95;;;;;;;14.65;81.40;101338.38;10203549;28;20042;-67
2021/08/03 05:14:30;;;;;;;4.50;1.60;;;;;;;14.74;80.72;101341.91;10190085;28;20482;-67
2021/08/03 05:19:27;;;;;;;3.92;2.08;;;;;;;14.85;80.29;101343.16;10199321;28;20101;-66
2021/08/03 05:24:27;;;;;;;3.95;1.88;;;;;;;14.90;79.95;101334.69;10203847;28;20053;-67
2021/08/03 05:29:23;;;;;;;6.78;2.17;;;;;;;14.94;79.33;101335.66;10210025;28;20076;-67
2021/08/03 05:34:20;;;;;;;6.82;1.60;;;;;;;14.99;78.48;101342.09;10203638;28;20078;-66
2021/08/03 05:39:16;;;;;;;4.35;1.77;;;;;;;15.00;78.80;101340.97;10214300;28;20042;-67
2021/08/03 05:44:13;;;;;;;5.28;1.60;;;;;;;15.03;79.24;101340.28;10210739;28;20073;-67
2021/08/03 05:49:09;;;;;;;3.95;1.45;;;;;;;15.05;78.69;101330.56;10206257;28;20092;-67
2021/08/03 05:54:06;;;;;;;4.85;1.40;;;;;;;15.02;78.03;101331.22;10208915;28;20089;-66
2021/08/03 05:59:02;;;;;;;3.90;1.38;;;;;;;15.10;77.99;101329.56;10194668;28;20104;-68
2021/08/03 06:03:59;;;;;;;4.50;1.25;;;;;;;15.11;77.64;101333.94;10208489;28;20562;-67
2021/08/03 06:08:56;;;;;;;3.88;1.20;;;;;;;15.11;77.26;101333.94;10204873;28;20107;-67
2021/08/03 06:13:56;;;;;;;3.67;1.00;;;;;;;15.16;76.94;101336.50;10205119;28;20100;-66
2021/08/03 06:18:57;;;;;;;4.63;1.45;;;;;;;15.24;76.95;101338.38;10196643;28;20116;-67
2021/08/03 06:23:55;;;;;;;4.10;1.20;;;;;;;15.31;77.16;101344.16;10202705;28;20472;-67
2021/08/03 06:28:54;;;;;;;5.13;1.55;;;;;;;15.42;76.75;101338.25;10202355;28;20088;-66
2021/08/03 06:33:50;;;;;;;4.20;1.27;;;;;;;15.49;76.44;101344.03;10204285;28;20128;-67
2021/08/03 06:38:47;;;;;;;3.50;1.45;;;;;;;15.56;76.19;101350.63;10208084;28;20506;-67
2021/08/03 06:43:54;;;;;;;2.92;1.00;;;;;;;15.62;74.62;101348.50;10206491;28;20045;-67
2021/08/03 06:49:02;;;;;;;3.05;1.30;;;;;;;15.67;73.26;101351.03;10206065;28;20087;-67
2021/08/03 06:54:04;;;;;;;4.05;1.10;;;;;;;15.64;72.54;101351.72;10208758;28;20410;-67
2021/08/03 06:59:07;;;;;;;6.03;1.48;;;;;;;15.75;72.16;101352.94;10193524;28;20069;-67
2021/08/03 07:04:04;;;;;;;2.72;1.30;;;;;;;15.86;71.49;101347.81;10190491;28;20076;-67
2021/08/03 07:09:05;;;;;;;3.28;1.20;;;;;;;15.95;71.39;101350.50;10202100;28;20108;-66
2021/08/03 07:14:01;;;;;;;7.63;1.30;;;;;;;16.08;70.89;101354.94;10181370;28;20095;-67
2021/08/03 07:19:00;;;;;;;5.80;1.52;;;;;;;16.24;70.20;101355.06;10205853;28;20472;-68
2021/08/03 07:23:57;;;;;;;5.13;1.90;;;;;;;16.33;69.12;101357.72;10197972;28;20330;-68
2021/08/03 07:28:53;;;;;;;4.22;1.70;;;;;;;16.44;69.25;101355.34;10193205;28;20452;-67
2021/08/03 07:33:50;;;;;;;8.07;2.60;;;;;;;16.45;69.78;101363.28;10200178;28;20561;-68
2021/08/03 07:38:46;;;;;;;5.35;2.58;;;;;;;16.56;70.19;101364.44;10199209;28;20077;-67
2021/08/03 07:43:43;;;;;;;6.80;2.33;;;;;;;16.69;69.59;101370.00;10202584;28;20463;-66
2021/08/03 07:48:39;;;;;;;6.93;1.88;;;;;;;16.67;69.13;101366.78;10198323;28;20092;-68
2021/08/03 07:53:36;;;;;;;7.47;2.35;;;;;;;16.78;68.86;101370.69;10208257;28;20071;-67
2021/08/03 07:58:32;;;;;;;5.20;2.28;;;;;;;16.70;67.80;101364.13;10195784;28;20464;-67
2021/08/03 08:03:29;;;;;;;6.18;2.67;;;;;;;16.81;68.65;101364.50;10186458;28;20085;-67
2021/08/03 08:08:25;;;;;;;5.22;2.10;;;;;;;16.89;67.20;101349.78;10202804;28;20041;-67
2021/08/03 08:13:22;;;;;;;4.53;1.83;;;;;;;16.94;66.89;101351.50;10187565;28;20078;-67
2021/08/03 08:18:19;;;;;;;4.63;1.50;;;;;;;16.99;65.64;101354.84;10189843;28;20050;-67
2021/08/03 08:23:17;;;;;;;6.10;1.75;;;;;;;17.11;64.38;101347.72;10186518;28;20084;-67
2021/08/03 08:28:13;;;;;;;3.45;1.48;;;;;;;17.19;64.29;101341.25;10200208;28;20104;-66
2021/08/03 08:33:10;;;;;;;2.85;0.73;;;;;;;17.28;60.01;101339.16;10206683;28;20492;-67
2021/08/03 08:38:07;;;;;;;5.55;1.05;;;;;;;17.38;58.71;101338.69;10205423;28;20053;-67
2021/08/03 08:43:14;;;;;;;6.25;0.90;;;;;;;17.48;57.70;101336.59;10202733;28;20045;-66
2021/08/03 08:48:12;;;;;;;3.78;1.10;;;;;;;17.50;59.30;101337.00;10199885;28;20534;-68
2021/08/03 08:53:10;;;;;;;2.78;1.17;;;;;;;17.81;59.50;101337.19;10191816;28;20147;-67
2021/08/03 08:58:06;;;;;;;1.98;0.50;;;;;;;17.82;56.70;101341.56;10201755;28;20577;-66
2021/08/03 09:03:03;;;;;;;2.97;0.80;;;;;;;17.81;56.75;101336.38;10203411;28;20050;-66
2021/08/03 09:08:02;;;;;;;4.55;0.75;;;;;;;17.92;56.53;101333.94;10209133;28;20046;-67
2021/08/03 09:13:13;;;;;;;3.03;1.25;;;;;;;18.08;55.92;101332.00;10203315;28;20105;-68
2021/08/03 09:18:18;;;;;;;2.70;0.90;;;;;;;18.37;56.66;101321.66;10211410;28;20072;-67
2021/08/03 09:23:14;;;;;;;2.67;0.60;;;;;;;18.57;55.98;101320.59;10192694;28;20631;-67
2021/08/03 09:28:11;;;;;;;1.48;0.52;;;;;;;18.78;54.34;101311.25;10198400;28;20103;-66
2021/08/03 09:33:07;;;;;;;3.08;0.52;;;;;;;19.02;53.95;101313.78;10214678;28;20057;-67
2021/08/03 09:38:14;;;;;;;2.67;0.82;;;;;;;19.32;55.67;101321.56;10202597;28;20046;-68
2021/08/03 09:43:26;;;;;;;2.47;0.80;;;;;;;19.30;53.26;101318.34;10209587;28;20045;-68
2021/08/03 09:48:25;;;;;;;2.38;0.70;;;;;;;19.24;52.22;101319.78;10213156;28;20049;-68
2021/08/03 09:53:52;;;;;;;2.80;0.60;;;;;;;19.37;53.61;101318.50;10200272;28;20049;-68
2021/08/03 09:59:00;;;;;;;2.25;0.57;;;;;;;19.24;52.71;101305.94;10199383;28;20598;-67
2021/08/03 10:03:59;;;;;;;1.42;0.40;;;;;;;19.36;52.92;101305.81;10188500;28;20077;-67
2021/08/03 10:08:56;;;;;;;2.78;0.80;;;;;;;19.59;52.55;101302.31;10199945;28;20079;-67
2021/08/03 10:13:54;;;;;;;3.90;0.82;;;;;;;19.50;54.79;101300.56;10205595;28;20088;-66
2021/08/03 10:18:53;;;;;;;2.90;0.90;;;;;;;19.09;54.00;101302.84;10186765;28;20041;-67
2021/08/03 10:23:50;;;;;;;1.83;0.60;;;;;;;18.86;54.34;101304.69;10198510;28;20168;-66
2021/08/03 10:28:47;;;;;;;5.25;0.80;;;;;;;19.68;52.88;101294.56;10204019;28;20129;-66
2021/08/03 10:33:46;;;;;;;4.63;0.60;;;;;;;19.40;52.34;101298.38;10210855;28;21163;-67
2021/08/03 10:39:09;;;;;;;3.60;0.70;;;;;;;19.39;53.35;101288.44;10197419;28;20073;-66
2021/08/03 10:44:42;;;;;;;2.10;0.70;;;;;;;19.27;54.15;101291.38;10210195;28;20573;-68
2021/08/03 10:49:56;;;;;;;2.55;0.85;;;;;;;19.13;55.69;101292.66;10199129;28;20066;-66
2021/08/03 10:54:53;;;;;;;3.17;0.70;;;;;;;19.13;55.96;101287.09;10180367;28;20042;-67
2021/08/03 10:59:59;;;;;;;2.83;0.68;;;;;;;19.20;57.36;101278.16;10204530;28;20069;-67
2021/08/03 11:04:57;;;;;;;4.10;0.60;;;;;;;19.24;58.38;101283.75;10194607;28;20098;-67
2021/08/03 11:10:01;;;;;;;4.00;1.00;;;;;;;19.26;58.43;101278.66;10198639;28;20072;-68
2021/08/03 11:14:57;;;;;;;2.97;0.60;;;;;;;19.24;57.28;101286.53;10203336;28;20107;-67
2021/08/03 11:19:54;;;;;;;4.40;0.82;;;;;;;19.21;57.32;101281.72;10208711;28;20037;-68
2021/08/03 11:24:51;;;;;;;3.90;0.90;;;;;;;19.13;57.23;101273.25;10195663;28;20088;-68
2021/08/03 11:29:48;;;;;;;4.22;0.80;;;;;;;19.14;56.90;101272.06;10197545;28;20666;-66
2021/08/03 11:34:47;;;;;;;3.00;0.63;;;;;;;19.24;56.37;101269.88;10197925;28;20156;-68
2021/08/03 11:39:58;;;;;;;2.92;0.70;;;;;;;19.37;57.33;101262.25;10201133;28;20074;-67
2021/08/03 11:45:21;;;;;;;2.83;0.60;;;;;;;20.25;55.29;101269.88;10195957;28;20678;-68
2021/08/03 11:50:29;;;;;;;3.10;0.80;;;;;;;20.70;56.12;101263.50;10196897;28;20077;-67
2021/08/03 11:55:26;;;;;;;2.20;0.80;;;;;;;20.36;52.80;101274.44;10193685;28;20050;-67
2021/08/03 12:00:23;;;;;;;3.55;0.73;;;;;;;19.97;52.92;101271.78;10208458;28;20073;-68
2021/08/03 12:05:24;;;;;;;3.15;0.88;;;;;;;19.74;54.46;101266.19;10192891;28;20104;-67
2021/08/03 12:10:27;;;;;;;3.85;1.00;;;;;;;19.53;56.06;101265.75;10204224;28;20058;-66
2021/08/03 12:15:25;;;;;;;1.60;0.80;;;;;;;19.27;56.10;101274.72;10196202;28;20053;-68
2021/08/03 12:20:26;;;;;;;4.10;1.27;;;;;;;19.05;56.54;101274.28;10194695;28;20050;-66
2021/08/03 12:25:24;;;;;;;5.15;1.25;;;;;;;18.85;57.83;101275.41;10195575;28;20050;-67
2021/08/03 12:30:38;;;;;;;3.58;1.05;;;;;;;18.79;58.64;101265.75;10211634;28;20763;-67
2021/08/03 12:35:39;;;;;;;;;;;;;;;18.75;58.50;101275.91;10213146;28;20563;-67
2021/08/03 12:40:35;;;;;;;4.03;0.98;;;;;;;18.69;57.94;101276.19;10197910;28;19953;-67
2021/08/03 12:45:32;;;;;;;3.38;0.75;;;;;;;18.68;58.53;101266.28;10209236;28;20045;-68
2021/08/03 12:50:44;;;;;;;2.97;0.80;;;;;;;18.60;58.55;101264.50;10204169;28;20046;-67
2021/08/03 12:56:06;;;;;;;2.75;0.77;;;;;;;18.66;58.96;101268.59;10192040;28;20097;-68
2021/08/03 13:01:16;;;;;;;1.88;0.60;;;;;;;18.61;59.15;101266.13;10167439;28;20043;-68
2021/08/03 13:06:13;;;;;;;1.88;0.60;;;;;;;18.51;57.64;101258.34;10209358;28;20133;-68
2021/08/03 13:11:10;;;;;;;4.07;0.65;;;;;;;18.43;57.43;101270.41;10199325;28;20084;-66
2021/08/03 13:16:07;;;;;;;2.28;0.82;;;;;;;18.22;59.76;101265.94;10194931;28;20057;-67
2021/08/03 13:21:05;;;;;;;2.13;0.80;;;;;;;18.13;61.87;101262.56;10196885;28;20046;-67
2021/08/03 13:26:03;;;;;;;2.97;1.13;;;;;;;18.11;64.85;101275.13;10204427;28;20049;-66
2021/08/03 13:30:59;;;;;;;3.88;0.90;;;;;;;18.11;66.64;101267.63;10211784;28;20041;-68
2021/08/03 13:35:56;;;;;;;3.13;1.02;;;;;;;18.19;67.59;101263.88;10204850;28;20085;-67
2021/08/03 13:40:52;;;;;;;4.25;1.35;;;;;;;18.34;68.48;101256.75;10205548;28;20683;-68
2021/08/03 13:45:51;;;;;;;2.53;0.90;;;;;;;18.34;66.15;101250.41;10206157;28;20045;-68
2021/08/03 13:50:49;;;;;;;5.22;1.40;;;;;;;18.33;66.96;101252.34;10200544;28;20126;-68
2021/08/03 13:55:46;;;;;;;5.07;1.13;;;;;;;18.28;65.08;101247.91;10202924;28;20707;-67
2021/08/03 14:00:43;;;;;;;3.50;1.20;;;;;;;18.30;66.12;101240.03;10207435;28;20038;-67
2021/08/03 14:05:40;;;;;;;4.15;1.10;;;;;;;18.29;66.11;101238.44;10201128;28;20052;-68
2021/08/03 14:10:37;;;;;;;4.70;1.10;;;;;;;18.43;67.24;101237.19;10208926;28;20069;-66
2021/08/03 14:15:33;;;;;;;2.97;0.80;;;;;;;18.57;64.56;101237.53;10194411;28;20104;-66
2021/08/03 14:20:30;;;;;;;2.80;0.80;;;;;;;18.80;63.59;101234.09;10194203;28;20142;-66
2021/08/03 14:25:26;;;;;;;2.55;0.77;;;;;;;19.00;61.76;101227.44;10198397;28;20100;-66
2021/08/03 14:30:23;;;;;;;2.90;0.90;;;;;;;19.29;61.14;101228.03;10205325;28;20132;-66
2021/08/03 14:35:19;;;;;;;1.42;0.60;;;;;;;19.72;60.84;101223.34;10204358;28;20132;-67
2021/08/03 14:40:17;;;;;;;1.60;0.80;;;;;;;19.99;57.41;101223.44;10198596;28;20196;-68
2021/08/03 14:45:15;;;;;;;2.08;0.82;;;;;;;20.08;54.84;101224.00;10189807;28;20065;-68
2021/08/03 14:50:12;;;;;;;2.03;0.60;;;;;;;19.89;56.02;101211.78;10208639;28;20056;-68
2021/08/03 14:55:09;;;;;;;3.38;0.70;;;;;;;19.73;54.11;101208.31;10196895;28;20096;-68
2021/08/03 15:00:07;;;;;;;2.30;0.60;;;;;;;19.68;55.46;101219.66;10205100;28;20046;-68
2021/08/03 15:05:04;;;;;;;2.67;0.80;;;;;;;19.68;57.86;101211.34;10166157;28;20114;-67
2021/08/03 15:10:00;;;;;;;2.60;1.02;;;;;;;19.67;57.15;101218.06;10197936;28;20081;-68
2021/08/03 15:14:57;;;;;;;5.38;3.05;;;;;;;19.66;56.75;101203.41;10203629;28;20053;-68
2021/08/03 15:19:53;;;;;;;1.85;0.60;;;;;;;20.28;52.57;101208.84;10206236;28;20046;-67
2021/08/03 15:24:51;;;;;;;3.20;0.70;;;;;;;20.33;49.85;101218.81;10198548;28;20129;-67
2021/08/03 15:29:47;;;;;;;1.35;0.50;;;;;;;20.94;48.17;101198.31;10213540;28;20126;-67
2021/08/03 15:34:45;;;;;;;2.17;0.93;;;;;;;21.87;52.55;101187.47;10197369;28;20129;-66
2021/08/03 15:39:42;;;;;;;1.10;0.50;;;;;;;21.68;48.40;101196.03;10207316;28;20038;-66
2021/08/03 15:44:39;;;;;;;3.00;0.75;;;;;;;21.31;48.56;101188.47;10197642;28;20103;-66
2021/08/03 15:49:38;;;;;;;1.50;0.52;;;;;;;21.44;51.98;101184.25;10203811;28;20049;-66
2021/08/03 15:54:35;;;;;;;1.42;0.60;;;;;;;21.49;48.03;101183.09;10198342;28;20574;-67
2021/08/03 15:59:31;;;;;;;2.00;0.60;;;;;;;21.36;49.94;101180.56;10205691;28;20456;-67
2021/08/03 16:04:28;;;;;;;3.72;0.80;;;;;;;21.22;48.41;101175.63;10187813;28;20100;-66
2021/08/03 16:09:25;;;;;;;3.85;0.98;;;;;;;21.31;47.51;101177.34;10195172;28;20108;-67
2021/08/03 16:14:21;;;;;;;3.05;0.98;;;;;;;21.38;51.22;101182.97;10199318;28;20046;-67
2021/08/03 16:19:18;;;;;;;1.75;0.70;;;;;;;21.69;47.91;101186.50;10182660;28;20506;-68
2021/08/03 16:24:14;;;;;;;1.73;0.70;;;;;;;22.17;47.99;101173.38;10197059;28;20061;-67
2021/08/03 16:29:11;;;;;;;1.83;0.80;;;;;;;22.70;46.33;101183.31;10195802;28;20112;-67
2021/08/03 16:34:10;;;;;;;2.00;0.60;;;;;;;22.60;46.96;101184.03;10168169;28;20134;-66
2021/08/03 16:39:07;;;;;;;1.73;0.60;;;;;;;22.11;47.56;101188.06;10196126;28;20073;-66
2021/08/03 16:44:05;;;;;;;1.77;0.65;;;;;;;21.77;48.39;101193.72;10191440;28;20100;-66
2021/08/03 16:49:02;;;;;;;2.60;0.80;;;;;;;21.51;50.65;101186.31;10179719;28;20508;-66
2021/08/03 16:53:59;;;;;;;3.83;0.80;;;;;;;21.43;48.46;101186.22;10180898;28;20161;-67
2021/08/03 16:58:55;;;;;;;2.38;0.90;;;;;;;21.07;48.66;101190.53;10186896;28;20137;-67
2021/08/03 17:04:26;;;;;;;1.33;0.60;;;;;;;20.88;51.57;101187.91;10189956;28;20042;-67
2021/08/03 17:09:37;;;;;;;1.67;0.65;;;;;;;20.69;51.88;101197.97;10184475;28;20089;-64
2021/08/03 17:14:40;;;;;;;2.80;1.05;;;;;;;20.65;54.50;101199.09;10180360;28;20042;-65
2021/08/03 17:19:40;;;;;;;;;;;;;;;20.67;53.76;101205.88;10186210;28;20050;-66
2021/08/03 17:24:46;;;;;;;3.05;0.85;;;;;;;20.63;54.97;101199.47;10190525;28;19925;-65
2021/08/03 17:29:46;;;;;;;2.05;0.80;;;;;;;20.55;53.83;101203.31;10189715;28;20046;-66
2021/08/03 17:34:44;;;;;;;1.60;0.60;;;;;;;20.36;53.69;101207.78;10193498;28;20069;-66
2021/08/03 17:39:42;;;;;;;4.35;1.25;;;;;;;20.30;53.31;101206.50;10192437;28;20103;-66
2021/08/03 17:44:40;;;;;;;2.50;1.10;;;;;;;20.15;52.73;101207.47;10202997;28;20419;-65
2021/08/03 17:49:42;;;;;;;2.95;0.90;;;;;;;20.04;52.46;101207.25;10196232;28;20038;-66
2021/08/03 17:54:43;;;;;;;2.70;1.10;;;;;;;19.99;52.79;101217.88;10195799;28;20149;-66
2021/08/03 17:59:45;;;;;;;1.52;0.70;;;;;;;19.96;54.30;101211.09;10194370;28;20072;-66
2021/08/03 18:04:42;;;;;;;3.13;1.00;;;;;;;19.94;54.77;101211.47;10192581;28;20527;-65
2021/08/03 18:09:40;;;;;;;2.95;1.08;;;;;;;19.89;54.34;101213.72;10192267;28;20688;-65
2021/08/03 18:14:37;;;;;;;2.33;0.70;;;;;;;19.84;54.63;101214.03;10189832;28;20077;-65
2021/08/03 18:19:35;;;;;;;2.03;0.85;;;;;;;19.74;54.47;101215.47;10181288;28;20492;-66
2021/08/03 18:24:36;;;;;;;4.15;1.23;;;;;;;19.64;55.14;101216.03;10189985;28;20038;-65
2021/08/03 18:29:43;;;;;;;3.15;1.42;;;;;;;19.63;54.62;101217.19;10185677;28;20093;-65
2021/08/03 18:34:50;;;;;;;2.92;1.13;;;;;;;19.60;55.47;101226.25;10186279;28;20120;-65
2021/08/03 18:39:50;;;;;;;2.60;0.82;;;;;;;19.49;56.36;101224.06;10184763;28;20068;-66
2021/08/03 18:44:48;;;;;;;2.88;1.10;;;;;;;19.43;55.36;101224.75;10179568;28;20128;-65
2021/08/03 18:49:46;;;;;;;2.88;0.80;;;;;;;19.31;55.69;101225.72;10183441;28;20042;-66
2021/08/03 18:54:46;;;;;;;2.85;1.10;;;;;;;19.21;56.22;101231.81;10187027;28;20376;-66
2021/08/03 18:59:44;;;;;;;3.33;1.50;;;;;;;19.13;56.52;101234.44;10184690;28;20411;-66
2021/08/03 19:04:40;;;;;;;4.13;1.73;;;;;;;19.03;57.25;101229.50;10190717;28;20046;-66
2021/08/03 19:09:44;;;;;;;4.93;2.50;;;;;;;18.95;56.98;101236.03;10182377;28;20081;-66
2021/08/03 19:14:50;;;;;;;5.25;2.53;;;;;;;18.84;57.43;101235.00;10181247;28;20530;-64
2021/08/03 19:19:50;;;;;;;4.65;2.15;;;;;;;18.70;58.04;101235.44;10183037;28;20587;-65
2021/08/03 19:24:51;;;;;;;3.42;1.58;;;;;;;18.65;58.68;101244.81;10183128;28;20040;-66
2021/08/03 19:29:48;;;;;;;3.70;1.65;;;;;;;18.57;59.04;101248.59;10177609;28;20461;-67
2021/08/03 19:34:46;;;;;;;4.53;2.20;;;;;;;18.49;59.05;101253.16;10186746;28;20135;-67
2021/08/03 19:39:43;;;;;;;3.50;1.30;;;;;;;18.46;58.87;101253.88;10181700;28;20418;-68
2021/08/03 19:44:41;;;;;;;4.30;1.55;;;;;;;18.45;60.06;101251.47;10183884;28;20068;-67
2021/08/03 19:49:50;;;;;;;4.03;1.52;;;;;;;18.40;60.40;101260.03;10184433;28;20103;-65
2021/08/03 19:54:47;;;;;;;3.75;1.73;;;;;;;18.35;61.52;101268.63;10187873;28;20072;-65
2021/08/03 19:59:44;;;;;;;5.03;1.50;;;;;;;18.29;61.94;101271.66;10184431;28;20541;-66
2021/08/03 20:04:41;;;;;;;3.97;1.63;;;;;;;18.21;61.83;101275.41;10189239;28;20045;-67
2021/08/03 20:09:39;;;;;;;4.88;1.77;;;;;;;18.18;61.31;101276.13;10185770;28;20049;-66
2021/08/03 20:14:36;;;;;;;3.78;2.03;;;;;;;18.14;61.63;101286.28;10182923;28;20104;-65
2021/08/03 20:19:35;;;;;;;3.03;1.38;;;;;;;18.12;62.24;101288.59;10172232;28;20046;-65
2021/08/03 20:24:33;;;;;;;3.67;1.67;;;;;;;18.05;62.16;101289.22;10179779;28;20049;-65
2021/08/03 20:29:34;;;;;;;2.97;1.40;;;;;;;17.97;62.79;101297.69;10179969;28;20577;-69
2021/08/03 20:34:34;;;;;;;4.40;1.40;;;;;;;17.90;62.86;101290.00;10174279;28;20092;-67
2021/08/03 20:44:34;;;;;;;4.43;1.27;;;;;;;17.77;63.11;101300.28;10188305;28;20136;-69
2021/08/03 20:49:31;;;;;;;6.00;1.67;;;;;;;17.76;63.54;101306.19;10201631;28;20103;-70
2021/08/03 20:54:28;;;;;;;3.30;1.40;;;;;;;17.70;64.30;101313.91;10190899;28;20120;-70
2021/08/03 20:59:25;;;;;;;4.47;1.45;;;;;;;17.65;63.98;101303.09;10190773;28;20077;-69
2021/08/03 21:04:23;;;;;;;3.88;1.55;;;;;;;17.57;63.28;101304.88;10196444;28;20137;-71
2021/08/03 21:09:21;;;;;;;4.75;1.42;;;;;;;17.53;63.88;101316.97;10194922;28;20042;-71
2021/08/03 21:14:18;;;;;;;3.42;1.65;;;;;;;17.46;64.24;101312.84;10200261;28;20046;-71
2021/08/03 21:19:14;;;;;;;4.43;1.95;;;;;;;17.40;65.29;101325.28;10186072;28;20107;-71
2021/08/03 21:24:11;;;;;;;4.55;1.40;;;;;;;17.30;65.04;101319.47;10200089;28;20145;-70
2021/08/03 21:29:07;;;;;;;3.97;1.67;;;;;;;17.22;65.76;101329.50;10206540;28;20050;-71
2021/08/03 21:34:04;;;;;;;3.40;1.35;;;;;;;17.14;66.33;101320.16;10201271;28;20041;-71
2021/08/03 21:39:00;;;;;;;4.78;1.60;;;;;;;17.04;66.88;101329.75;10205307;28;20069;-71
2021/08/03 21:43:58;;;;;;;4.28;1.58;;;;;;;16.98;67.41;101320.06;10196684;28;20073;-71
2021/08/03 21:48:55;;;;;;;3.88;1.38;;;;;;;16.86;66.70;101322.84;10213403;28;20054;-70
2021/08/03 21:53:52;;;;;;;3.33;1.70;;;;;;;16.81;66.61;101314.81;10206760;28;20074;-70
2021/08/03 21:58:48;;;;;;;4.03;1.48;;;;;;;16.79;66.20;101317.91;10202290;28;20568;-70
2021/08/03 22:03:44;;;;;;;4.05;1.55;;;;;;;16.74;65.74;101315.34;10198928;28;20042;-70
2021/08/03 22:08:41;;;;;;;3.03;1.45;;;;;;;16.75;65.87;101310.63;10201772;28;20081;-70
2021/08/03 22:13:37;;;;;;;4.43;1.27;;;;;;;16.75;65.89;101310.63;10204922;28;20046;-69
2021/08/03 22:18:34;;;;;;;3.97;1.42;;;;;;;16.75;66.20;101310.63;10201432;28;20078;-71
2021/08/03 22:23:30;;;;;;;3.15;1.38;;;;;;;16.71;66.07;101309.69;10199176;28;20076;-71
2021/08/03 22:28:27;;;;;;;3.13;1.30;;;;;;;16.70;65.91;101308.09;10202068;28;20076;-71
2021/08/03 22:33:23;;;;;;;2.75;1.23;;;;;;;16.71;66.43;101309.69;10212797;28;20136;-71
2021/08/03 22:38:20;;;;;;;3.00;1.20;;;;;;;16.71;66.92;101320.75;10210915;28;20503;-71
2021/08/03 22:43:16;;;;;;;3.30;1.23;;;;;;;16.68;66.54;101310.41;10204745;28;20565;-73
2021/08/03 22:48:13;;;;;;;3.83;1.30;;;;;;;16.69;66.99;101314.78;10190018;28;20084;-70
2021/08/03 22:53:09;;;;;;;2.72;1.48;;;;;;;16.63;66.75;101308.66;10201311;28;20052;-70
2021/08/03 22:58:06;;;;;;;2.92;1.38;;;;;;;16.56;66.73;101309.22;10202513;28;20081;-71
2021/08/03 23:03:02;;;;;;;2.50;1.00;;;;;;;16.53;66.78;101304.41;10197445;28;20081;-72